sensor_id;sensor_type;location;lat;lon;timestamp;pressure;altitude;pressure_sealevel;temperature;humidity
8039;BME280;4062;49.844;8.120;2023-01-28T00:01:34;100098.50;;;13.52;55.27
8039;BME280;4062;49.844;8.120;2023-01-28T00:03:35;100094.94;;;13.53;55.47
8039;BME280;4062;49.844;8.120;2023-01-28T00:05:36;100100.25;;;13.53;55.30
8039;BME280;4062;49.844;8.120;2023-01-28T00:07:37;100097.66;;;13.52;55.28
8039;BME280;4062;49.844;8.120;2023-01-28T00:09:37;100095.88;;;13.52;55.44
8039;BME280;4062;49.844;8.120;2023-01-28T00:11:38;100104.72;;;13.53;55.25
8039;BME280;4062;49.844;8.120;2023-01-28T00:13:39;100099.41;;;13.53;54.99
8039;BME280;4062;49.844;8.120;2023-01-28T00:15:40;100100.31;;;13.52;55.24
8039;BME280;4062;49.844;8.120;2023-01-28T00:17:41;100095.91;;;13.51;55.34
8039;BME280;4062;49.844;8.120;2023-01-28T00:19:41;100097.66;;;13.52;55.29
8039;BME280;4062;49.844;8.120;2023-01-28T00:21:42;100098.56;;;13.51;55.44
8039;BME280;4062;49.844;8.120;2023-01-28T00:23:47;100097.66;;;13.52;55.02
8039;BME280;4062;49.844;8.120;2023-01-28T00:25:49;100090.59;;;13.51;55.40
8039;BME280;4062;49.844;8.120;2023-01-28T00:27:50;100088.81;;;13.51;55.37
8039;BME280;4062;49.844;8.120;2023-01-28T00:29:50;100090.59;;;13.51;55.33
8039;BME280;4062;49.844;8.120;2023-01-28T00:31:51;100092.38;;;13.50;55.18
8039;BME280;4062;49.844;8.120;2023-01-28T00:33:52;100089.72;;;13.50;55.38
8039;BME280;4062;49.844;8.120;2023-01-28T00:36:00;100096.81;;;13.50;55.28
8039;BME280;4062;49.844;8.120;2023-01-28T00:38:01;100094.16;;;13.50;55.23
8039;BME280;4062;49.844;8.120;2023-01-28T00:40:03;100088.84;;;13.50;55.28
8039;BME280;4062;49.844;8.120;2023-01-28T00:42:04;100088.84;;;13.50;55.34
8039;BME280;4062;49.844;8.120;2023-01-28T00:44:05;100095.03;;;13.50;55.36
8039;BME280;4062;49.844;8.120;2023-01-28T00:46:06;100094.16;;;13.50;55.30
8039;BME280;4062;49.844;8.120;2023-01-28T00:48:07;100088.00;;;13.49;55.32
8039;BME280;4062;49.844;8.120;2023-01-28T00:50:09;100095.06;;;13.49;55.30
8039;BME280;4062;49.844;8.120;2023-01-28T00:52:11;100102.19;;;13.48;55.23
8039;BME280;4062;49.844;8.120;2023-01-28T00:54:12;100107.47;;;13.48;55.18
8039;BME280;4062;49.844;8.120;2023-01-28T00:56:14;100105.69;;;13.49;55.43
8039;BME280;4062;49.844;8.120;2023-01-28T00:58:15;100103.94;;;13.48;55.39
8039;BME280;4062;49.844;8.120;2023-01-28T01:00:17;100104.84;;;13.48;55.21
8039;BME280;4062;49.844;8.120;2023-01-28T01:02:22;100103.94;;;13.48;55.40
8039;BME280;4062;49.844;8.120;2023-01-28T01:04:23;100105.72;;;13.47;55.38
8039;BME280;4062;49.844;8.120;2023-01-28T01:06:32;100103.09;;;13.47;55.40
8039;BME280;4062;49.844;8.120;2023-01-28T01:08:33;100104.84;;;13.47;55.44
8039;BME280;4062;49.844;8.120;2023-01-28T01:10:34;100106.63;;;13.46;55.30
8039;BME280;4062;49.844;8.120;2023-01-28T01:12:36;100101.34;;;13.46;55.35
8039;BME280;4062;49.844;8.120;2023-01-28T01:14:36;100104.84;;;13.47;55.31
8039;BME280;4062;49.844;8.120;2023-01-28T01:16:37;100104.91;;;13.45;55.15
8039;BME280;4062;49.844;8.120;2023-01-28T01:18:38;100105.75;;;13.45;55.25
8039;BME280;4062;49.844;8.120;2023-01-28T01:20:43;100104.91;;;13.45;55.40
8039;BME280;4062;49.844;8.120;2023-01-28T01:22:45;100113.72;;;13.45;55.49
8039;BME280;4062;49.844;8.120;2023-01-28T01:24:46;100112.84;;;13.45;55.14
8039;BME280;4062;49.844;8.120;2023-01-28T01:26:48;100112.84;;;13.45;55.57
8039;BME280;4062;49.844;8.120;2023-01-28T01:28:50;100107.59;;;13.43;55.29
8039;BME280;4062;49.844;8.120;2023-01-28T01:30:58;100117.31;;;13.44;55.34
8039;BME280;4062;49.844;8.120;2023-01-28T01:32:58;100115.50;;;13.45;55.53
8039;BME280;4062;49.844;8.120;2023-01-28T01:35:00;100117.31;;;13.44;55.32
8039;BME280;4062;49.844;8.120;2023-01-28T01:37:01;100119.97;;;13.44;55.31
8039;BME280;4062;49.844;8.120;2023-01-28T01:39:03;100122.63;;;13.44;55.48
8039;BME280;4062;49.844;8.120;2023-01-28T01:41:04;100125.28;;;13.44;55.18
8039;BME280;4062;49.844;8.120;2023-01-28T01:43:15;100125.28;;;13.44;55.26
8039;BME280;4062;49.844;8.120;2023-01-28T01:45:16;100129.69;;;13.44;55.46
8039;BME280;4062;49.844;8.120;2023-01-28T01:47:17;100131.50;;;13.43;55.38
8039;BME280;4062;49.844;8.120;2023-01-28T01:49:21;100126.19;;;13.43;55.48
8039;BME280;4062;49.844;8.120;2023-01-28T01:51:27;100133.25;;;13.44;55.50
8039;BME280;4062;49.844;8.120;2023-01-28T01:53:30;100136.78;;;13.43;55.39
8039;BME280;4062;49.844;8.120;2023-01-28T01:55:34;100130.59;;;13.43;55.36
8039;BME280;4062;49.844;8.120;2023-01-28T01:57:36;100134.13;;;13.43;55.45
8039;BME280;4062;49.844;8.120;2023-01-28T01:59:38;100135.91;;;13.43;55.34
8039;BME280;4062;49.844;8.120;2023-01-28T02:01:41;100130.59;;;13.43;55.41
8039;BME280;4062;49.844;8.120;2023-01-28T02:03:52;100131.50;;;13.42;55.50
8039;BME280;4062;49.844;8.120;2023-01-28T02:05:54;100136.81;;;13.42;55.56
8039;BME280;4062;49.844;8.120;2023-01-28T02:07:57;100135.94;;;13.41;55.42
8039;BME280;4062;49.844;8.120;2023-01-28T02:10:18;100137.72;;;13.41;55.59
8039;BME280;4062;49.844;8.120;2023-01-28T02:12:22;100134.22;;;13.40;55.41
8039;BME280;4062;49.844;8.120;2023-01-28T02:14:26;100138.59;;;13.41;55.53
8039;BME280;4062;49.844;8.120;2023-01-28T02:16:28;100137.72;;;13.41;55.54
8039;BME280;4062;49.844;8.120;2023-01-28T02:18:31;100139.50;;;13.40;55.36
8039;BME280;4062;49.844;8.120;2023-01-28T02:25:19;100133.34;;;13.40;55.38
8039;BME280;4062;49.844;8.120;2023-01-28T02:29:43;100133.31;;;13.38;55.53
8039;BME280;4062;49.844;8.120;2023-01-28T02:32:09;100136.84;;;13.40;55.12
8039;BME280;4062;49.844;8.120;2023-01-28T02:34:18;100134.22;;;13.40;55.39
8039;BME280;4062;49.844;8.120;2023-01-28T02:36:47;100131.59;;;13.39;55.41
8039;BME280;4062;49.844;8.120;2023-01-28T02:38:51;100135.09;;;13.39;55.53
8039;BME280;4062;49.844;8.120;2023-01-28T02:40:57;100139.56;;;13.39;55.51
8039;BME280;4062;49.844;8.120;2023-01-28T02:43:05;100130.69;;;13.38;55.47
8039;BME280;4062;49.844;8.120;2023-01-28T02:45:32;100128.94;;;13.39;55.62
8039;BME280;4062;49.844;8.120;2023-01-28T02:47:53;100132.47;;;13.38;55.57
8039;BME280;4062;49.844;8.120;2023-01-28T02:50:06;100128.03;;;13.40;55.43
8039;BME280;4062;49.844;8.120;2023-01-28T02:57:17;100136.88;;;13.37;55.61
8039;BME280;4062;49.844;8.120;2023-01-28T02:59:26;100141.28;;;13.38;55.56
8039;BME280;4062;49.844;8.120;2023-01-28T03:01:45;100144.00;;;13.37;55.46
8039;BME280;4062;49.844;8.120;2023-01-28T03:04:00;100140.44;;;13.36;55.32
8039;BME280;4062;49.844;8.120;2023-01-28T03:06:06;100149.31;;;13.37;55.31
8039;BME280;4062;49.844;8.120;2023-01-28T03:08:09;100146.66;;;13.37;55.47
8039;BME280;4062;49.844;8.120;2023-01-28T03:10:28;100143.09;;;13.36;55.44
8039;BME280;4062;49.844;8.120;2023-01-28T03:12:30;100150.16;;;13.37;55.50
8039;BME280;4062;49.844;8.120;2023-01-28T03:14:53;100148.41;;;13.36;55.44
8039;BME280;4062;49.844;8.120;2023-01-28T03:17:21;100156.38;;;13.36;55.52
8039;BME280;4062;49.844;8.120;2023-01-28T03:19:43;100151.06;;;13.36;55.50
8039;BME280;4062;49.844;8.120;2023-01-28T03:22:03;100147.56;;;13.36;55.42
8039;BME280;4062;49.844;8.120;2023-01-28T03:24:25;100150.22;;;13.36;55.33
8039;BME280;4062;49.844;8.120;2023-01-28T03:26:53;100155.50;;;13.36;55.37
8039;BME280;4062;49.844;8.120;2023-01-28T03:29:17;100157.31;;;13.35;55.26
8039;BME280;4062;49.844;8.120;2023-01-28T03:31:40;100157.31;;;13.35;55.83
8039;BME280;4062;49.844;8.120;2023-01-28T03:33:59;100157.31;;;13.35;55.88
8039;BME280;4062;49.844;8.120;2023-01-28T03:36:20;100161.72;;;13.35;55.47
8039;BME280;4062;49.844;8.120;2023-01-28T03:38:45;100165.28;;;13.35;55.52
8039;BME280;4062;49.844;8.120;2023-01-28T03:40:51;100167.94;;;13.35;55.59
8039;BME280;4062;49.844;8.120;2023-01-28T03:42:52;100165.28;;;13.35;55.45
8039;BME280;4062;49.844;8.120;2023-01-28T03:45:06;100168.84;;;13.34;55.62
8039;BME280;4062;49.844;8.120;2023-01-28T03:47:07;100174.13;;;13.34;55.56
8039;BME280;4062;49.844;8.120;2023-01-28T03:49:10;100167.94;;;13.34;55.43
8039;BME280;4062;49.844;8.120;2023-01-28T03:51:11;100173.25;;;13.34;55.55
8039;BME280;4062;49.844;8.120;2023-01-28T03:53:11;100177.69;;;13.33;55.68
8039;BME280;4062;49.844;8.120;2023-01-28T03:55:25;100168.84;;;13.33;55.62
8039;BME280;4062;49.844;8.120;2023-01-28T03:57:27;100175.03;;;13.33;55.48
8039;BME280;4062;49.844;8.120;2023-01-28T03:59:31;100167.97;;;13.32;55.55
8039;BME280;4062;49.844;8.120;2023-01-28T04:01:32;100173.28;;;13.32;55.47
8039;BME280;4062;49.844;8.120;2023-01-28T04:03:32;100177.69;;;13.33;55.54
8039;BME280;4062;49.844;8.120;2023-01-28T04:05:38;100178.56;;;13.34;55.57
8039;BME280;4062;49.844;8.120;2023-01-28T04:07:39;100174.16;;;13.33;55.50
8039;BME280;4062;49.844;8.120;2023-01-28T04:09:54;100179.47;;;13.33;55.64
8039;BME280;4062;49.844;8.120;2023-01-28T04:12:10;100180.34;;;13.33;55.47
8039;BME280;4062;49.844;8.120;2023-01-28T04:14:17;100180.38;;;13.32;55.68
8039;BME280;4062;49.844;8.120;2023-01-28T04:16:23;100184.78;;;13.33;55.61
8039;BME280;4062;49.844;8.120;2023-01-28T04:18:25;100176.84;;;13.31;55.56
8039;BME280;4062;49.844;8.120;2023-01-28T04:20:29;100177.72;;;13.32;55.52
8039;BME280;4062;49.844;8.120;2023-01-28T04:22:32;100182.16;;;13.31;55.65
8039;BME280;4062;49.844;8.120;2023-01-28T04:24:33;100189.22;;;13.32;55.31
8039;BME280;4062;49.844;8.120;2023-01-28T04:26:33;100182.16;;;13.31;55.57
8039;BME280;4062;49.844;8.120;2023-01-28T04:28:34;100190.13;;;13.31;55.57
8039;BME280;4062;49.844;8.120;2023-01-28T04:30:34;100186.63;;;13.31;55.36
8039;BME280;4062;49.844;8.120;2023-01-28T04:32:58;100184.81;;;13.31;55.63
8039;BME280;4062;49.844;8.120;2023-01-28T04:35:19;100190.13;;;13.31;55.70
8039;BME280;4062;49.844;8.120;2023-01-28T04:37:32;100190.13;;;13.31;55.67
8039;BME280;4062;49.844;8.120;2023-01-28T04:39:42;100189.25;;;13.31;55.67
8039;BME280;4062;49.844;8.120;2023-01-28T04:42:10;100180.41;;;13.30;55.58
8039;BME280;4062;49.844;8.120;2023-01-28T04:44:29;100191.91;;;13.31;55.60
8039;BME280;4062;49.844;8.120;2023-01-28T04:46:48;100190.16;;;13.29;55.52
8039;BME280;4062;49.844;8.120;2023-01-28T04:49:14;100189.25;;;13.31;55.69
8039;BME280;4062;49.844;8.120;2023-01-28T04:51:24;100189.25;;;13.31;55.43
8039;BME280;4062;49.844;8.120;2023-01-28T04:53:51;100193.69;;;13.30;55.57
8039;BME280;4062;49.844;8.120;2023-01-28T04:56:04;100188.38;;;13.30;55.62
8039;BME280;4062;49.844;8.120;2023-01-28T04:58:07;100192.81;;;13.29;55.62
8039;BME280;4062;49.844;8.120;2023-01-28T05:00:09;100190.16;;;13.29;55.62
8039;BME280;4062;49.844;8.120;2023-01-28T05:02:09;100195.47;;;13.29;55.78
8039;BME280;4062;49.844;8.120;2023-01-28T05:04:10;100191.06;;;13.28;55.59
8039;BME280;4062;49.844;8.120;2023-01-28T05:06:12;100186.63;;;13.29;55.61
8039;BME280;4062;49.844;8.120;2023-01-28T05:08:16;100192.81;;;13.29;55.47
8039;BME280;4062;49.844;8.120;2023-01-28T05:10:20;100197.25;;;13.29;55.52
8039;BME280;4062;49.844;8.120;2023-01-28T05:12:20;100193.72;;;13.28;55.51
8039;BME280;4062;49.844;8.120;2023-01-28T05:14:21;100197.25;;;13.29;55.45
8039;BME280;4062;49.844;8.120;2023-01-28T05:16:29;100198.13;;;13.28;55.36
8039;BME280;4062;49.844;8.120;2023-01-28T05:18:31;100191.97;;;13.27;55.63
8039;BME280;4062;49.844;8.120;2023-01-28T05:20:44;100194.63;;;13.27;55.60
8039;BME280;4062;49.844;8.120;2023-01-28T05:22:46;100197.28;;;13.27;55.48
8039;BME280;4062;49.844;8.120;2023-01-28T05:24:53;100202.59;;;13.27;55.57
8039;BME280;4062;49.844;8.120;2023-01-28T05:26:54;100200.78;;;13.28;55.65
8039;BME280;4062;49.844;8.120;2023-01-28T05:28:54;100199.94;;;13.27;55.47
8039;BME280;4062;49.844;8.120;2023-01-28T05:30:55;100206.16;;;13.26;55.42
8039;BME280;4062;49.844;8.120;2023-01-28T05:32:56;100205.25;;;13.27;55.54
8039;BME280;4062;49.844;8.120;2023-01-28T05:34:57;100214.06;;;13.28;55.51
8039;BME280;4062;49.844;8.120;2023-01-28T05:36:58;100207.00;;;13.27;55.40
8039;BME280;4062;49.844;8.120;2023-01-28T05:39:08;100212.31;;;13.27;55.82
8039;BME280;4062;49.844;8.120;2023-01-28T05:41:08;100212.31;;;13.27;55.48
8039;BME280;4062;49.844;8.120;2023-01-28T05:43:10;100213.25;;;13.26;55.55
8039;BME280;4062;49.844;8.120;2023-01-28T05:45:19;100220.28;;;13.27;55.38
8039;BME280;4062;49.844;8.120;2023-01-28T05:47:38;100220.28;;;13.27;55.51
8039;BME280;4062;49.844;8.120;2023-01-28T05:49:59;100222.06;;;13.26;55.58
8039;BME280;4062;49.844;8.120;2023-01-28T05:52:11;100224.72;;;13.26;55.86
8039;BME280;4062;49.844;8.120;2023-01-28T05:54:13;100229.19;;;13.26;55.56
8039;BME280;4062;49.844;8.120;2023-01-28T05:56:13;100233.59;;;13.25;55.43
8039;BME280;4062;49.844;8.120;2023-01-28T05:58:15;100230.03;;;13.26;55.53
8039;BME280;4062;49.844;8.120;2023-01-28T06:00:16;100233.59;;;13.25;55.34
8039;BME280;4062;49.844;8.120;2023-01-28T06:02:18;100238.00;;;13.26;55.53
8039;BME280;4062;49.844;8.120;2023-01-28T06:04:19;100250.41;;;13.26;55.53
8039;BME280;4062;49.844;8.120;2023-01-28T06:06:20;100241.56;;;13.25;55.59
8039;BME280;4062;49.844;8.120;2023-01-28T06:08:20;100250.41;;;13.26;55.58
8039;BME280;4062;49.844;8.120;2023-01-28T06:10:21;100242.44;;;13.26;55.61
8039;BME280;4062;49.844;8.120;2023-01-28T06:12:22;100246.84;;;13.25;55.56
8039;BME280;4062;49.844;8.120;2023-01-28T06:14:45;100251.31;;;13.25;55.48
8039;BME280;4062;49.844;8.120;2023-01-28T06:17:10;100251.31;;;13.25;55.60
8039;BME280;4062;49.844;8.120;2023-01-28T06:19:33;100247.75;;;13.24;55.56
8039;BME280;4062;49.844;8.120;2023-01-28T06:21:33;100262.81;;;13.24;55.49
8039;BME280;4062;49.844;8.120;2023-01-28T06:23:34;100259.28;;;13.25;55.47
8039;BME280;4062;49.844;8.120;2023-01-28T06:25:40;100261.03;;;13.26;55.52
8039;BME280;4062;49.844;8.120;2023-01-28T06:27:44;100262.75;;;13.27;55.55
8039;BME280;4062;49.844;8.120;2023-01-28T06:29:45;100268.03;;;13.28;55.36
8039;BME280;4062;49.844;8.120;2023-01-28T06:31:45;100270.69;;;13.28;55.77
8039;BME280;4062;49.844;8.120;2023-01-28T06:33:46;100273.31;;;13.30;55.70
8039;BME280;4062;49.844;8.120;2023-01-28T06:35:47;100274.19;;;13.31;55.57
8039;BME280;4062;49.844;8.120;2023-01-28T06:37:47;100269.75;;;13.31;55.62
8039;BME280;4062;49.844;8.120;2023-01-28T06:39:47;100270.59;;;13.32;55.48
8039;BME280;4062;49.844;8.120;2023-01-28T06:41:49;100274.16;;;13.32;55.42
8039;BME280;4062;49.844;8.120;2023-01-28T06:43:49;100280.31;;;13.33;55.47
8039;BME280;4062;49.844;8.120;2023-01-28T06:45:50;100281.22;;;13.32;55.49
8039;BME280;4062;49.844;8.120;2023-01-28T06:47:50;100281.22;;;13.32;55.49
8039;BME280;4062;49.844;8.120;2023-01-28T06:49:51;100284.81;;;13.31;55.43
8039;BME280;4062;49.844;8.120;2023-01-28T06:51:51;100279.47;;;13.32;55.53
8039;BME280;4062;49.844;8.120;2023-01-28T06:53:51;100280.34;;;13.31;55.42
8039;BME280;4062;49.844;8.120;2023-01-28T06:55:52;100281.22;;;13.32;55.56
8039;BME280;4062;49.844;8.120;2023-01-28T06:57:52;100278.56;;;13.32;55.61
8039;BME280;4062;49.844;8.120;2023-01-28T06:59:53;100287.41;;;13.32;55.50
8039;BME280;4062;49.844;8.120;2023-01-28T07:01:53;100289.19;;;13.32;55.48
8039;BME280;4062;49.844;8.120;2023-01-28T07:03:55;100287.41;;;13.32;55.31
8039;BME280;4062;49.844;8.120;2023-01-28T07:05:56;100289.19;;;13.32;55.48
8039;BME280;4062;49.844;8.120;2023-01-28T07:07:56;100291.84;;;13.32;55.46
8039;BME280;4062;49.844;8.120;2023-01-28T07:09:57;100283.88;;;13.32;55.43
8039;BME280;4062;49.844;8.120;2023-01-28T07:11:57;100278.56;;;13.32;55.30
8039;BME280;4062;49.844;8.120;2023-01-28T07:13:58;100290.97;;;13.31;55.41
8039;BME280;4062;49.844;8.120;2023-01-28T07:15:59;100297.16;;;13.32;55.50
8039;BME280;4062;49.844;8.120;2023-01-28T07:17:59;100295.41;;;13.31;55.44
8039;BME280;4062;49.844;8.120;2023-01-28T07:20:00;100296.28;;;13.31;55.36
8039;BME280;4062;49.844;8.120;2023-01-28T07:22:00;100306.91;;;13.31;55.39
8039;BME280;4062;49.844;8.120;2023-01-28T07:24:02;100298.97;;;13.29;55.24
8039;BME280;4062;49.844;8.120;2023-01-28T07:26:04;100295.41;;;13.31;55.38
8039;BME280;4062;49.844;8.120;2023-01-28T07:28:05;100300.72;;;13.31;55.32
8039;BME280;4062;49.844;8.120;2023-01-28T07:30:06;100302.53;;;13.28;55.27
8039;BME280;4062;49.844;8.120;2023-01-28T07:32:07;100307.81;;;13.30;55.38
8039;BME280;4062;49.844;8.120;2023-01-28T07:34:08;100302.50;;;13.30;55.49
8039;BME280;4062;49.844;8.120;2023-01-28T07:36:08;100304.28;;;13.29;55.30
8039;BME280;4062;49.844;8.120;2023-01-28T07:38:09;100309.59;;;13.29;55.26
8039;BME280;4062;49.844;8.120;2023-01-28T07:40:10;100308.69;;;13.29;55.40
8039;BME280;4062;49.844;8.120;2023-01-28T07:42:10;100310.47;;;13.30;55.42
8039;BME280;4062;49.844;8.120;2023-01-28T07:44:19;100312.25;;;13.28;55.40
8039;BME280;4062;49.844;8.120;2023-01-28T07:46:20;100310.50;;;13.28;55.39
8039;BME280;4062;49.844;8.120;2023-01-28T07:48:21;100306.94;;;13.28;55.52
8039;BME280;4062;49.844;8.120;2023-01-28T07:50:21;100308.75;;;13.27;55.40
8039;BME280;4062;49.844;8.120;2023-01-28T07:52:25;100311.41;;;13.27;55.52
8039;BME280;4062;49.844;8.120;2023-01-28T07:54:25;100312.25;;;13.28;55.41
8039;BME280;4062;49.844;8.120;2023-01-28T07:56:26;100316.72;;;13.27;55.68
8039;BME280;4062;49.844;8.120;2023-01-28T07:58:28;100323.78;;;13.27;55.53
8039;BME280;4062;49.844;8.120;2023-01-28T08:00:30;100323.78;;;13.27;55.40
8039;BME280;4062;49.844;8.120;2023-01-28T08:02:31;100322.91;;;13.26;55.49
8039;BME280;4062;49.844;8.120;2023-01-28T08:04:31;100327.31;;;13.27;55.61
8039;BME280;4062;49.844;8.120;2023-01-28T08:06:32;100328.22;;;13.26;55.63
8039;BME280;4062;49.844;8.120;2023-01-28T08:08:37;100333.53;;;13.26;55.37
8039;BME280;4062;49.844;8.120;2023-01-28T08:10:38;100324.72;;;13.26;55.36
8039;BME280;4062;49.844;8.120;2023-01-28T08:12:38;100330.88;;;13.26;55.63
8039;BME280;4062;49.844;8.120;2023-01-28T08:14:39;100324.72;;;13.26;55.53
8039;BME280;4062;49.844;8.120;2023-01-28T08:16:39;100330.03;;;13.26;55.50
8039;BME280;4062;49.844;8.120;2023-01-28T08:18:40;100327.38;;;13.26;55.47
8039;BME280;4062;49.844;8.120;2023-01-28T08:20:41;100332.69;;;13.26;55.38
8039;BME280;4062;49.844;8.120;2023-01-28T08:22:46;100326.47;;;13.25;55.47
8039;BME280;4062;49.844;8.120;2023-01-28T08:24:46;100325.63;;;13.25;55.28
8039;BME280;4062;49.844;8.120;2023-01-28T08:26:47;100330.91;;;13.25;55.50
8039;BME280;4062;49.844;8.120;2023-01-28T08:28:48;100328.28;;;13.25;55.52
8039;BME280;4062;49.844;8.120;2023-01-28T08:30:48;100331.78;;;13.25;55.92
8039;BME280;4062;49.844;8.120;2023-01-28T08:32:49;100337.09;;;13.25;55.55
8039;BME280;4062;49.844;8.120;2023-01-28T08:34:49;100335.34;;;13.24;55.50
8039;BME280;4062;49.844;8.120;2023-01-28T08:36:50;100338.00;;;13.24;55.43
8039;BME280;4062;49.844;8.120;2023-01-28T08:38:53;100336.25;;;13.23;55.62
8039;BME280;4062;49.844;8.120;2023-01-28T08:40:55;100344.19;;;13.25;55.47
8039;BME280;4062;49.844;8.120;2023-01-28T08:42:56;100334.47;;;13.24;55.71
8039;BME280;4062;49.844;8.120;2023-01-28T08:44:56;100338.88;;;13.25;55.41
8039;BME280;4062;49.844;8.120;2023-01-28T08:46:57;100335.34;;;13.24;55.53
8039;BME280;4062;49.844;8.120;2023-01-28T08:48:57;100331.81;;;13.24;55.54
8039;BME280;4062;49.844;8.120;2023-01-28T08:50:58;100341.53;;;13.25;55.58
8039;BME280;4062;49.844;8.120;2023-01-28T08:53:05;100338.00;;;13.24;55.47
8039;BME280;4062;49.844;8.120;2023-01-28T08:55:06;100341.53;;;13.23;55.48
8039;BME280;4062;49.844;8.120;2023-01-28T08:57:07;100340.66;;;13.24;55.08
8039;BME280;4062;49.844;8.120;2023-01-28T08:59:07;100347.75;;;13.24;55.46
8039;BME280;4062;49.844;8.120;2023-01-28T09:01:08;100342.44;;;13.24;55.47
8039;BME280;4062;49.844;8.120;2023-01-28T09:03:08;100348.66;;;13.23;55.67
8039;BME280;4062;49.844;8.120;2023-01-28T09:05:09;100344.19;;;13.23;55.64
8039;BME280;4062;49.844;8.120;2023-01-28T09:07:10;100353.06;;;13.24;55.46
8039;BME280;4062;49.844;8.120;2023-01-28T09:09:10;100347.75;;;13.24;55.51
8039;BME280;4062;49.844;8.120;2023-01-28T09:11:11;100352.16;;;13.25;55.41
8039;BME280;4062;49.844;8.120;2023-01-28T09:13:13;100350.34;;;13.25;55.43
8039;BME280;4062;49.844;8.120;2023-01-28T09:15:14;100357.41;;;13.26;55.67
8039;BME280;4062;49.844;8.120;2023-01-28T09:17:15;100357.38;;;13.28;55.60
8039;BME280;4062;49.844;8.120;2023-01-28T09:19:15;100360.03;;;13.29;55.53
8039;BME280;4062;49.844;8.120;2023-01-28T09:21:16;100370.59;;;13.31;55.48
8039;BME280;4062;49.844;8.120;2023-01-28T09:23:16;100374.09;;;13.33;55.57
8039;BME280;4062;49.844;8.120;2023-01-28T09:25:17;100370.53;;;13.34;55.54
8039;BME280;4062;49.844;8.120;2023-01-28T09:27:17;100375.81;;;13.36;55.61
8039;BME280;4062;49.844;8.120;2023-01-28T09:29:18;100367.81;;;13.37;55.61
8039;BME280;4062;49.844;8.120;2023-01-28T09:31:18;100369.59;;;13.40;55.93
8039;BME280;4062;49.844;8.120;2023-01-28T09:33:18;100372.19;;;13.41;55.82
8039;BME280;4062;49.844;8.120;2023-01-28T09:35:19;100374.81;;;13.43;55.62
8039;BME280;4062;49.844;8.120;2023-01-28T09:37:20;100376.53;;;13.45;55.75
8039;BME280;4062;49.844;8.120;2023-01-28T09:39:20;100371.19;;;13.47;55.73
8039;BME280;4062;49.844;8.120;2023-01-28T09:41:27;100374.72;;;13.49;55.69
8039;BME280;4062;49.844;8.120;2023-01-28T09:45:58;100376.34;;;13.55;55.88
8039;BME280;4062;49.844;8.120;2023-01-28T09:48:01;100372.78;;;13.56;55.68
8039;BME280;4062;49.844;8.120;2023-01-28T09:50:07;100381.59;;;13.58;55.62
8039;BME280;4062;49.844;8.120;2023-01-28T09:52:13;100375.38;;;13.59;55.70
8039;BME280;4062;49.844;8.120;2023-01-28T09:54:41;100378.00;;;13.60;55.64
8039;BME280;4062;49.844;8.120;2023-01-28T09:56:46;100381.47;;;13.64;55.46
8039;BME280;4062;49.844;8.120;2023-01-28T09:58:50;100385.00;;;13.65;55.70
8039;BME280;4062;49.844;8.120;2023-01-28T10:00:56;100385.88;;;13.65;55.59
8039;BME280;4062;49.844;8.120;2023-01-28T10:05:39;100392.06;;;13.66;55.65
8039;BME280;4062;49.844;8.120;2023-01-28T10:07:52;100389.38;;;13.67;55.62
8039;BME280;4062;49.844;8.120;2023-01-28T10:10:08;100390.25;;;13.68;55.62
8039;BME280;4062;49.844;8.120;2023-01-28T10:16:49;100394.69;;;13.67;55.52
8039;BME280;4062;49.844;8.120;2023-01-28T10:19:02;100394.69;;;13.67;55.56
8039;BME280;4062;49.844;8.120;2023-01-28T10:21:16;100400.88;;;13.68;55.44
8039;BME280;4062;49.844;8.120;2023-01-28T10:23:21;100399.13;;;13.67;55.58
8039;BME280;4062;49.844;8.120;2023-01-28T10:25:25;100399.13;;;13.67;55.53
8039;BME280;4062;49.844;8.120;2023-01-28T10:27:29;100400.03;;;13.66;55.68
8039;BME280;4062;49.844;8.120;2023-01-28T10:29:32;100400.88;;;13.66;55.50
8039;BME280;4062;49.844;8.120;2023-01-28T10:31:35;100395.59;;;13.66;55.51
8039;BME280;4062;49.844;8.120;2023-01-28T10:33:39;100410.66;;;13.66;55.27
8039;BME280;4062;49.844;8.120;2023-01-28T10:35:40;100410.66;;;13.66;55.50
8039;BME280;4062;49.844;8.120;2023-01-28T10:37:42;100407.09;;;13.65;55.72
8039;BME280;4062;49.844;8.120;2023-01-28T10:39:43;100411.56;;;13.65;55.54
8039;BME280;4062;49.844;8.120;2023-01-28T10:41:44;100416.88;;;13.65;55.28
8039;BME280;4062;49.844;8.120;2023-01-28T10:43:45;100416.88;;;13.65;55.42
8039;BME280;4062;49.844;8.120;2023-01-28T10:45:51;100408.00;;;13.64;55.41
8039;BME280;4062;49.844;8.120;2023-01-28T10:47:55;100408.06;;;13.63;55.56
8039;BME280;4062;49.844;8.120;2023-01-28T10:50:00;100409.84;;;13.62;55.53
8039;BME280;4062;49.844;8.120;2023-01-28T10:52:10;100413.38;;;13.63;55.55
8039;BME280;4062;49.844;8.120;2023-01-28T10:54:24;100414.25;;;13.62;55.54
8039;BME280;4062;49.844;8.120;2023-01-28T10:56:28;100411.59;;;13.62;55.41
8039;BME280;4062;49.844;8.120;2023-01-28T10:58:32;100404.53;;;13.60;55.41
8039;BME280;4062;49.844;8.120;2023-01-28T11:00:36;100410.75;;;13.61;55.55
8039;BME280;4062;49.844;8.120;2023-01-28T11:02:36;100409.84;;;13.60;55.51
8039;BME280;4062;49.844;8.120;2023-01-28T11:04:37;100411.66;;;13.60;55.35
8039;BME280;4062;49.844;8.120;2023-01-28T11:06:38;100413.41;;;13.59;55.34
8039;BME280;4062;49.844;8.120;2023-01-28T11:08:43;100417.88;;;13.59;55.43
8039;BME280;4062;49.844;8.120;2023-01-28T11:10:44;100409.03;;;13.58;55.46
8039;BME280;4062;49.844;8.120;2023-01-28T11:12:57;100417.88;;;13.59;55.28
8039;BME280;4062;49.844;8.120;2023-01-28T11:15:03;100407.25;;;13.59;55.38
8039;BME280;4062;49.844;8.120;2023-01-28T11:17:11;100403.75;;;13.57;55.40
8039;BME280;4062;49.844;8.120;2023-01-28T11:19:18;100405.50;;;13.58;55.43
8039;BME280;4062;49.844;8.120;2023-01-28T11:21:24;100409.94;;;13.57;55.36
8039;BME280;4062;49.844;8.120;2023-01-28T11:23:32;100405.53;;;13.56;55.34
8039;BME280;4062;49.844;8.120;2023-01-28T11:25:36;100404.63;;;13.57;55.37
8039;BME280;4062;49.844;8.120;2023-01-28T11:27:36;100401.09;;;13.57;55.39
8039;BME280;4062;49.844;8.120;2023-01-28T11:29:38;100400.22;;;13.56;55.24
8039;BME280;4062;49.844;8.120;2023-01-28T11:31:43;100402.88;;;13.56;55.25